createdAt,value
2018-06-05T00:00:00.358Z,0.90
2018-06-05T00:02:33.814Z,1.10
2018-06-05T00:05:10.686Z,1.00
2018-06-05T00:07:43.831Z,0.93
2018-06-05T00:10:17.946Z,0.90
2018-06-05T00:12:52.111Z,0.87
2018-06-05T00:15:27.780Z,0.80
2018-06-05T00:18:01.781Z,1.10
2018-06-05T00:20:39.166Z,0.87
2018-06-05T00:23:12.771Z,0.97
2018-06-05T00:25:48.009Z,0.90
2018-06-05T00:28:21.270Z,0.80
2018-06-05T00:30:54.320Z,1.10
2018-06-05T00:33:28.014Z,1.40
2018-06-05T00:36:06.338Z,1.10
2018-06-05T00:38:40.019Z,0.87
2018-06-05T00:41:13.834Z,1.10
2018-06-05T00:43:47.513Z,0.70
2018-06-05T00:46:21.720Z,1.00
2018-06-05T00:48:55.885Z,1.07
2018-06-05T00:51:38.468Z,1.03
2018-06-05T00:54:12.286Z,0.70
2018-06-05T00:56:45.961Z,1.00
2018-06-05T00:59:19.444Z,0.80
2018-06-05T01:01:52.800Z,0.90
2018-06-05T01:04:25.833Z,0.90
2018-06-05T01:07:03.594Z,0.90
2018-06-05T01:09:37.116Z,0.80
2018-06-05T01:12:10.493Z,1.10
2018-06-05T01:14:43.913Z,1.00
2018-06-05T01:17:17.386Z,0.87
2018-06-05T01:19:51.673Z,0.50
2018-06-05T01:22:25.049Z,0.70
2018-06-05T01:24:58.797Z,0.80
2018-06-05T01:27:32.356Z,0.93
2018-06-05T01:30:06.281Z,1.00
2018-06-05T01:32:44.530Z,0.90
2018-06-05T01:35:17.048Z,0.90
2018-06-05T01:37:50.494Z,1.07
2018-06-05T01:40:24.610Z,0.87
2018-06-05T01:42:58.052Z,1.27
2018-06-05T01:45:33.441Z,0.80
2018-06-05T01:48:10.639Z,0.90
2018-06-05T01:50:47.198Z,0.77
2018-06-05T01:53:20.800Z,0.80
2018-06-05T01:55:54.365Z,1.03
2018-06-05T01:58:27.615Z,1.20
2018-06-05T02:01:00.791Z,0.80
2018-06-05T02:03:34.030Z,0.97
2018-06-05T02:06:08.086Z,0.70
2018-06-05T02:08:43.096Z,1.00
2018-06-05T02:11:17.229Z,0.90
2018-06-05T02:13:51.434Z,1.00
2018-06-05T02:16:24.823Z,1.00
2018-06-05T02:18:58.386Z,1.00
2018-06-05T02:21:31.801Z,1.30
2018-06-05T02:24:05.517Z,1.00
2018-06-05T02:26:43.424Z,0.80
2018-06-05T02:29:17.879Z,1.30
2018-06-05T02:31:51.326Z,1.23
2018-06-05T02:34:24.893Z,1.23
2018-06-05T02:36:58.568Z,1.00
2018-06-05T02:39:32.148Z,0.90
2018-06-05T02:42:05.599Z,0.87
2018-06-05T02:44:39.062Z,0.90
2018-06-05T02:47:16.984Z,0.77
2018-06-05T02:49:54.067Z,1.10
2018-06-05T02:52:27.773Z,1.00
2018-06-05T02:55:01.374Z,0.93
2018-06-05T02:57:35.181Z,0.90
2018-06-05T03:00:07.175Z,1.10
2018-06-05T03:02:40.757Z,1.00
2018-06-05T03:05:14.655Z,0.90
2018-06-05T03:07:48.150Z,0.97
2018-06-05T03:10:22.556Z,0.90
2018-06-05T03:12:55.970Z,1.10
2018-06-05T03:15:29.423Z,0.73
2018-06-05T03:18:06.081Z,1.27
2018-06-05T03:20:39.834Z,1.00
2018-06-05T03:23:13.596Z,1.17
2018-06-05T03:25:47.521Z,1.27
2018-06-05T03:28:21.321Z,0.93
2018-06-05T03:30:54.533Z,0.80
2018-06-05T03:33:28.158Z,1.33
2018-06-05T03:36:01.495Z,1.07
2018-06-05T03:38:35.060Z,1.20
2018-06-05T03:41:09.332Z,1.40
2018-06-05T03:43:42.963Z,1.20
2018-06-05T03:46:16.580Z,1.27
2018-06-05T03:48:51.092Z,1.13
2018-06-05T03:51:25.227Z,1.20
2018-06-05T03:53:58.133Z,1.43
2018-06-05T03:56:31.346Z,1.13
2018-06-05T03:59:04.478Z,1.93
2018-06-05T04:01:36.209Z,1.60
2018-06-05T04:04:09.611Z,2.43
2018-06-05T04:06:42.571Z,1.53
2018-06-05T04:09:15.726Z,2.00
2018-06-05T04:11:48.797Z,1.23
2018-06-05T04:14:22.626Z,1.53
2018-06-05T04:16:59.583Z,1.53
2018-06-05T04:19:32.868Z,1.17
2018-06-05T04:22:05.970Z,1.30
2018-06-05T04:24:39.178Z,1.23
2018-06-05T04:27:12.160Z,1.10
2018-06-05T04:29:45.330Z,1.07
2018-06-05T04:32:20.782Z,1.00
2018-06-05T04:34:54.031Z,1.20
2018-06-05T04:37:29.782Z,1.20
2018-06-05T04:40:03.593Z,1.00
2018-06-05T04:42:37.422Z,1.03
2018-06-05T04:45:11.274Z,0.90
2018-06-05T04:47:44.855Z,0.93
2018-06-05T04:50:18.203Z,0.90
2018-06-05T04:52:51.806Z,1.40
2018-06-05T04:55:25.541Z,1.10
2018-06-05T04:57:59.427Z,0.90
2018-06-05T05:00:33.201Z,0.90
2018-06-05T05:03:06.578Z,0.83
2018-06-05T05:05:40.234Z,0.90
2018-06-05T05:08:13.623Z,0.77
2018-06-05T05:10:46.827Z,0.93
2018-06-05T05:13:20.885Z,0.90
2018-06-05T05:15:54.767Z,1.20
2018-06-05T05:18:29.264Z,0.73
2018-06-05T05:21:02.867Z,1.20
2018-06-05T05:23:36.587Z,1.00
2018-06-05T05:26:10.329Z,1.00
2018-06-05T05:28:43.976Z,0.87
2018-06-05T05:31:17.388Z,1.00
2018-06-05T05:33:51.276Z,1.00
2018-06-05T05:36:25.184Z,1.00
2018-06-05T05:38:58.788Z,1.10
2018-06-05T05:41:32.436Z,1.00
2018-06-05T05:44:06.181Z,0.90
2018-06-05T05:46:40.213Z,1.10
2018-06-05T05:49:13.964Z,0.87
2018-06-05T05:51:47.449Z,1.23
2018-06-05T05:54:21.014Z,1.00
2018-06-05T05:56:54.723Z,0.90
2018-06-05T05:59:28.692Z,0.90
2018-06-05T06:02:01.948Z,1.30
2018-06-05T06:04:35.328Z,1.27
2018-06-05T06:07:08.535Z,0.87
2018-06-05T06:09:42.828Z,1.17
2018-06-05T06:12:16.490Z,1.00
2018-06-05T06:14:49.833Z,0.93
2018-06-05T06:17:23.185Z,1.07
2018-06-05T06:19:56.494Z,1.93
2018-06-05T06:22:30.038Z,1.77
2018-06-05T06:25:03.599Z,1.03
2018-06-05T06:27:36.930Z,1.23
2018-06-05T06:30:10.583Z,0.80
2018-06-05T06:32:44.094Z,0.90
2018-06-05T06:35:17.537Z,1.30
2018-06-05T06:37:51.180Z,1.17
2018-06-05T06:40:24.557Z,1.07
2018-06-05T06:42:57.728Z,0.77
2018-06-05T06:45:31.442Z,0.90
2018-06-05T06:48:04.989Z,1.13
2018-06-05T06:50:39.146Z,1.07
2018-06-05T06:53:12.727Z,1.17
2018-06-05T06:55:46.298Z,1.20
2018-06-05T06:58:19.894Z,0.83
2018-06-05T07:00:53.414Z,1.00
2018-06-05T07:03:27.034Z,1.00
2018-06-05T07:06:00.892Z,0.70
2018-06-05T07:08:34.244Z,0.90
2018-06-05T07:11:07.609Z,1.10
2018-06-05T07:13:41.305Z,1.07
2018-06-05T07:16:14.795Z,1.20
2018-06-05T07:18:48.340Z,1.00
2018-06-05T07:21:22.472Z,1.00
2018-06-05T07:23:55.991Z,0.70
2018-06-05T07:26:29.383Z,0.83
2018-06-05T07:29:02.840Z,0.90
2018-06-05T07:31:36.205Z,1.10
2018-06-05T07:34:09.485Z,1.20
2018-06-05T07:36:43.942Z,0.90
2018-06-05T07:39:17.754Z,1.07
2018-06-05T07:41:51.182Z,1.07
2018-06-05T07:44:24.595Z,0.83
2018-06-05T07:46:58.529Z,1.23
2018-06-05T07:49:32.278Z,1.00
2018-06-05T07:52:05.890Z,1.60
2018-06-05T07:54:39.602Z,1.53
2018-06-05T07:57:13.228Z,1.80
2018-06-05T07:59:46.377Z,1.53
2018-06-05T08:02:19.764Z,1.50
2018-06-05T08:04:53.383Z,1.17
2018-06-05T08:07:26.836Z,1.00
2018-06-05T08:10:00.223Z,1.30
2018-06-05T08:12:34.138Z,1.27
2018-06-05T08:15:07.872Z,1.17
2018-06-05T08:17:41.215Z,1.17
2018-06-05T08:20:14.581Z,1.03
2018-06-05T08:22:57.404Z,1.10
2018-06-05T08:25:31.201Z,0.63
2018-06-05T08:28:05.004Z,1.37
2018-06-05T08:30:38.921Z,1.10
2018-06-05T08:33:12.209Z,0.97
2018-06-05T08:35:45.657Z,1.20
2018-06-05T08:38:18.810Z,1.10
2018-06-05T08:40:52.455Z,1.00
2018-06-05T08:43:26.100Z,1.13
2018-06-05T08:45:59.687Z,1.43
2018-06-05T08:48:33.329Z,1.30
2018-06-05T08:51:06.481Z,1.17
2018-06-05T08:53:40.057Z,1.23
2018-06-05T08:56:12.157Z,1.00
2018-06-05T08:58:45.657Z,1.27
2018-06-05T09:01:19.086Z,1.13
2018-06-05T09:03:52.661Z,1.20
2018-06-05T09:06:26.443Z,0.90
2018-06-05T09:09:00.160Z,1.07
2018-06-05T09:11:33.561Z,1.10
2018-06-05T09:14:07.518Z,1.17
2018-06-05T09:16:40.764Z,0.87
2018-06-05T09:19:14.305Z,1.30
2018-06-05T09:21:47.971Z,1.20
2018-06-05T09:24:21.900Z,1.30
2018-06-05T09:26:55.458Z,1.50
2018-06-05T09:29:28.540Z,1.20
2018-06-05T09:32:02.510Z,1.33
2018-06-05T09:34:35.963Z,1.30
2018-06-05T09:37:09.989Z,1.23
2018-06-05T09:39:44.401Z,1.50
2018-06-05T09:42:18.153Z,1.33
2018-06-05T09:44:52.184Z,1.00
2018-06-05T09:47:26.135Z,1.30
2018-06-05T09:50:00.779Z,1.40
2018-06-05T09:52:34.052Z,1.10
2018-06-05T09:55:07.766Z,1.13
2018-06-05T09:57:42.774Z,1.20
2018-06-05T10:00:16.388Z,1.30
2018-06-05T10:02:50.569Z,1.17
2018-06-05T10:05:24.726Z,1.43
2018-06-05T10:07:58.353Z,1.10
2018-06-05T10:10:32.372Z,1.17
2018-06-05T10:13:05.617Z,1.20
2018-06-05T10:15:39.305Z,1.07
2018-06-05T10:18:13.042Z,1.20
2018-06-05T10:20:46.734Z,1.50
2018-06-05T10:23:20.717Z,1.70
2018-06-05T10:25:54.166Z,1.40
2018-06-05T10:28:27.349Z,1.30
2018-06-05T10:31:00.834Z,1.30
2018-06-05T10:33:34.492Z,1.10
2018-06-05T10:36:08.788Z,1.10
2018-06-05T10:38:42.436Z,1.47
2018-06-05T10:41:16.242Z,1.20
2018-06-05T10:43:49.538Z,1.13
2018-06-05T10:46:22.952Z,1.20
2018-06-05T10:48:57.803Z,1.10
2018-06-05T10:51:31.456Z,1.30
2018-06-05T10:54:04.977Z,1.30
2018-06-05T10:56:38.564Z,1.20
2018-06-05T10:59:12.669Z,1.10
2018-06-05T11:01:46.696Z,1.30
2018-06-05T11:04:20.862Z,1.30
2018-06-05T11:06:54.379Z,1.40
2018-06-05T11:09:27.836Z,1.30
2018-06-05T11:12:01.947Z,1.07
2018-06-05T11:14:35.730Z,1.87
2018-06-05T11:17:09.297Z,2.03
2018-06-05T11:19:42.754Z,1.47
2018-06-05T11:22:16.121Z,1.67
2018-06-05T11:24:49.498Z,1.60
2018-06-05T11:27:22.907Z,1.30
2018-06-05T11:29:55.129Z,1.47
2018-06-05T11:32:28.770Z,1.43
2018-06-05T11:35:02.508Z,1.47
2018-06-05T11:37:35.902Z,1.27
2018-06-05T11:40:09.569Z,1.37
2018-06-05T11:42:43.104Z,1.50
2018-06-05T11:45:16.737Z,1.67
2018-06-05T11:47:50.205Z,1.50
2018-06-05T11:50:23.900Z,1.30
2018-06-05T11:52:57.797Z,1.83
2018-06-05T11:55:31.613Z,1.60
2018-06-05T11:58:05.248Z,1.73
2018-06-05T12:00:38.963Z,2.30
2018-06-05T12:03:12.653Z,1.50
2018-06-05T12:05:46.200Z,1.60
2018-06-05T12:08:20.040Z,2.00
2018-06-05T12:10:53.772Z,2.00
2018-06-05T12:13:27.256Z,2.23
2018-06-05T12:16:00.893Z,2.27
2018-06-05T12:18:34.419Z,2.07
2018-06-05T12:21:06.604Z,2.37
2018-06-05T12:23:40.245Z,2.77
2018-06-05T12:26:14.027Z,2.80
2018-06-05T12:28:48.347Z,2.40
2018-06-05T12:31:21.980Z,2.20
2018-06-05T12:33:55.565Z,2.27
2018-06-05T12:36:29.454Z,2.10
2018-06-05T12:39:03.430Z,2.00
2018-06-05T12:41:36.873Z,2.40
2018-06-05T12:44:11.308Z,2.40
2018-06-05T12:46:44.886Z,2.00
2018-06-05T12:49:18.433Z,2.10
2018-06-05T12:51:51.847Z,1.83
2018-06-05T12:54:25.413Z,2.13
2018-06-05T12:56:59.085Z,2.03
2018-06-05T12:59:33.119Z,2.10
2018-06-05T13:02:07.099Z,2.07
2018-06-05T13:04:40.494Z,1.80
2018-06-05T13:07:14.428Z,2.80
2018-06-05T13:09:48.027Z,2.97
2018-06-05T13:12:21.022Z,2.20
2018-06-05T13:14:55.155Z,1.90
2018-06-05T13:17:28.665Z,2.00
2018-06-05T13:20:02.424Z,1.93
2018-06-05T13:22:35.855Z,1.60
2018-06-05T13:25:09.368Z,1.97
2018-06-05T13:27:43.017Z,1.87
2018-06-05T13:30:16.831Z,2.10
2018-06-05T13:32:50.805Z,1.73
2018-06-05T13:35:24.397Z,2.00
2018-06-05T13:37:57.680Z,2.10
2018-06-05T13:40:31.364Z,2.10
2018-06-05T13:43:04.937Z,1.70
2018-06-05T13:45:38.665Z,1.90
2018-06-05T13:48:12.148Z,1.97
2018-06-05T13:50:45.759Z,2.10
2018-06-05T13:53:19.478Z,2.17
2018-06-05T13:55:52.986Z,1.80
2018-06-05T13:58:26.365Z,1.77
2018-06-05T14:00:59.863Z,2.33
2018-06-05T14:03:33.162Z,2.10
2018-06-05T14:06:06.428Z,1.60
2018-06-05T14:08:39.666Z,1.67
2018-06-05T14:11:13.143Z,1.90
2018-06-05T14:13:47.032Z,1.50
2018-06-05T14:16:20.843Z,2.17
2018-06-05T14:18:54.362Z,1.53
2018-06-05T14:21:27.651Z,1.93
2018-06-05T14:24:01.002Z,1.77
2018-06-05T14:26:34.743Z,1.40
2018-06-05T14:29:08.449Z,1.50
2018-06-05T14:31:41.823Z,1.80
2018-06-05T14:34:15.385Z,1.87
2018-06-05T14:36:49.133Z,1.50
2018-06-05T14:39:22.944Z,1.50
2018-06-05T14:41:56.774Z,1.70
2018-06-05T14:44:30.524Z,1.70
2018-06-05T14:47:03.769Z,1.53
2018-06-05T14:49:38.736Z,1.67
2018-06-05T14:52:12.436Z,1.53
2018-06-05T14:54:46.139Z,1.27
2018-06-05T14:57:19.608Z,1.17
2018-06-05T14:59:53.338Z,1.17
2018-06-05T15:02:27.520Z,1.00
2018-06-05T15:05:01.190Z,1.10
2018-06-05T15:07:34.618Z,1.30
2018-06-05T15:10:08.273Z,1.00
2018-06-05T15:12:42.713Z,1.67
2018-06-05T15:15:16.001Z,1.60
2018-06-05T15:17:49.429Z,2.10
2018-06-05T15:20:23.281Z,1.80
2018-06-05T15:22:56.472Z,1.70
2018-06-05T15:25:30.234Z,1.97
2018-06-05T15:28:04.188Z,1.87
2018-06-05T15:30:37.672Z,1.60
2018-06-05T15:33:11.255Z,1.57
2018-06-05T15:35:45.404Z,1.40
2018-06-05T15:38:18.797Z,1.00
2018-06-05T15:40:52.168Z,1.20
2018-06-05T15:43:26.111Z,1.40
2018-06-05T15:46:00.633Z,1.30
2018-06-05T15:48:33.764Z,1.30
2018-06-05T15:51:06.714Z,1.17
2018-06-05T15:53:40.321Z,0.70
2018-06-05T15:56:13.832Z,0.80
2018-06-05T15:58:47.030Z,0.90
2018-06-05T16:01:20.128Z,1.33
2018-06-05T16:03:53.012Z,1.00
2018-06-05T16:06:26.988Z,1.00
2018-06-05T16:09:00.878Z,0.90
2018-06-05T16:11:35.877Z,1.10
2018-06-05T16:14:10.227Z,0.77
2018-06-05T16:16:44.972Z,0.97
2018-06-05T16:19:19.724Z,1.20
2018-06-05T16:21:54.207Z,0.97
2018-06-05T16:24:28.490Z,0.77
2018-06-05T16:27:02.032Z,0.90
2018-06-05T16:29:35.783Z,0.80
2018-06-05T16:32:09.334Z,0.80
2018-06-05T16:34:43.410Z,0.90
2018-06-05T16:37:17.768Z,0.57
2018-06-05T16:39:52.359Z,0.70
2018-06-05T16:42:26.131Z,0.80
2018-06-05T16:45:00.907Z,0.60
2018-06-05T16:47:34.840Z,0.57
2018-06-05T16:50:09.092Z,0.40
2018-06-05T16:52:42.429Z,0.70
2018-06-05T16:55:15.409Z,0.70
2018-06-05T16:57:49.399Z,0.60
2018-06-05T17:00:23.472Z,0.57
2018-06-05T17:02:58.163Z,0.70
2018-06-05T17:05:31.371Z,0.63
2018-06-05T17:08:04.631Z,0.63
2018-06-05T17:10:38.943Z,0.63
2018-06-05T17:13:12.755Z,0.60
2018-06-05T17:15:46.292Z,0.67
2018-06-05T17:18:20.033Z,0.63
2018-06-05T17:20:53.498Z,0.80
2018-06-05T17:23:26.890Z,0.60
2018-06-05T17:26:00.474Z,0.63
2018-06-05T17:28:34.214Z,0.53
2018-06-05T17:31:07.712Z,0.63
2018-06-05T17:33:41.358Z,0.63
2018-06-05T17:36:14.785Z,0.60
2018-06-05T17:38:48.177Z,0.70
2018-06-05T17:41:21.769Z,0.60
2018-06-05T17:43:55.640Z,0.43
2018-06-05T17:46:29.440Z,0.73
2018-06-05T17:49:03.040Z,0.60
2018-06-05T17:51:36.504Z,0.73
2018-06-05T17:54:10.196Z,0.40
2018-06-05T17:56:43.782Z,0.60
2018-06-05T17:59:17.648Z,0.27
2018-06-05T18:01:50.981Z,0.60
2018-06-05T18:04:24.473Z,0.40
2018-06-05T18:06:58.182Z,0.50
2018-06-05T18:09:31.925Z,0.50
2018-06-05T18:12:05.912Z,0.53
2018-06-05T18:14:40.118Z,0.57
2018-06-05T18:17:14.117Z,0.50
2018-06-05T18:19:47.842Z,0.60
2018-06-05T18:22:22.803Z,0.50
2018-06-05T18:24:56.833Z,0.60
2018-06-05T18:27:30.732Z,0.63
2018-06-05T18:30:04.797Z,0.80
2018-06-05T18:32:38.666Z,0.70
2018-06-05T18:35:13.172Z,0.40
2018-06-05T18:37:46.898Z,0.83
2018-06-05T18:40:20.654Z,0.70
2018-06-05T18:42:54.320Z,0.57
2018-06-05T18:45:29.296Z,0.60
2018-06-05T18:48:02.852Z,0.50
2018-06-05T18:50:36.416Z,0.60
2018-06-05T18:53:10.194Z,0.60
2018-06-05T18:55:44.242Z,0.43
2018-06-05T18:58:18.195Z,0.53
2018-06-05T19:00:52.075Z,0.40
2018-06-05T19:03:25.928Z,0.60
2018-06-05T19:05:59.853Z,0.33
2018-06-05T19:08:33.531Z,0.50
2018-06-05T19:11:07.058Z,0.40
2018-06-05T19:13:40.206Z,0.83
2018-06-05T19:16:13.757Z,0.40
2018-06-05T19:18:47.095Z,0.50
2018-06-05T19:21:20.739Z,0.80
2018-06-05T19:23:54.804Z,0.63
2018-06-05T19:26:28.342Z,0.50
2018-06-05T19:29:01.901Z,0.50
2018-06-05T19:31:34.247Z,0.70
2018-06-05T19:34:08.219Z,0.80
2018-06-05T19:36:41.846Z,0.60
2018-06-05T19:39:15.755Z,0.90
2018-06-05T19:41:49.475Z,0.60
2018-06-05T19:44:23.561Z,0.80
2018-06-05T19:46:57.329Z,0.40
2018-06-05T19:49:30.666Z,0.90
2018-06-05T19:52:04.905Z,1.07
2018-06-05T19:54:39.456Z,0.67
2018-06-05T19:57:12.992Z,0.50
2018-06-05T19:59:45.928Z,1.00
2018-06-05T20:02:19.428Z,0.60
2018-06-05T20:04:52.664Z,0.60
2018-06-05T20:07:26.116Z,0.83
2018-06-05T20:09:58.729Z,0.50
2018-06-05T20:12:32.657Z,0.50
2018-06-05T20:15:06.732Z,0.70
2018-06-05T20:17:41.099Z,0.80
2018-06-05T20:20:15.077Z,0.63
2018-06-05T20:22:50.612Z,0.77
2018-06-05T20:25:22.719Z,0.60
2018-06-05T20:27:56.464Z,0.67
2018-06-05T20:30:30.312Z,0.40
2018-06-05T20:33:03.636Z,0.60
2018-06-05T20:35:37.989Z,0.50
2018-06-05T20:38:11.440Z,0.40
2018-06-05T20:40:44.905Z,0.53
2018-06-05T20:43:18.306Z,0.70
2018-06-05T20:45:51.834Z,0.60
2018-06-05T20:48:25.888Z,0.60
2018-06-05T20:50:59.564Z,0.70
2018-06-05T20:53:33.615Z,0.70
2018-06-05T20:56:08.153Z,0.70
2018-06-05T20:58:42.372Z,0.40
2018-06-05T21:01:16.531Z,0.70
2018-06-05T21:03:50.561Z,0.60
2018-06-05T21:06:23.650Z,0.60
2018-06-05T21:08:57.291Z,0.43
2018-06-05T21:11:30.476Z,0.57
2018-06-05T21:14:04.272Z,0.50
2018-06-05T21:16:37.503Z,0.43
2018-06-05T21:19:11.883Z,0.50
2018-06-05T21:21:46.406Z,0.37
2018-06-05T21:24:20.453Z,0.53
2018-06-05T21:26:55.173Z,0.67
2018-06-05T21:29:29.263Z,0.60
2018-06-05T21:32:02.803Z,0.80
2018-06-05T21:34:36.152Z,0.70
2018-06-05T21:37:09.947Z,0.60
2018-06-05T21:39:44.275Z,0.43
2018-06-05T21:42:18.232Z,0.40
2018-06-05T21:44:51.799Z,0.70
2018-06-05T21:47:25.554Z,0.80
2018-06-05T21:52:55.102Z,0.40
2018-06-05T21:55:29.691Z,0.33
2018-06-05T21:58:03.939Z,0.60
2018-06-05T22:00:38.063Z,0.40
2018-06-05T22:03:12.458Z,0.50
2018-06-05T22:05:46.294Z,0.80
2018-06-05T22:08:19.630Z,0.60
2018-06-05T22:10:52.864Z,0.40
2018-06-05T22:13:26.448Z,0.63
2018-06-05T22:15:59.975Z,0.70
2018-06-05T22:18:33.210Z,0.57
2018-06-05T22:21:06.932Z,0.50
2018-06-05T22:23:40.130Z,0.50
2018-06-05T22:26:15.313Z,0.50
2018-06-05T22:28:50.337Z,0.33
2018-06-05T22:31:23.643Z,0.53
2018-06-05T22:33:56.841Z,0.67
2018-06-05T22:36:29.865Z,0.63
2018-06-05T22:39:03.133Z,0.50
2018-06-05T22:41:36.519Z,0.60
2018-06-05T22:44:10.028Z,0.60
2018-06-05T22:46:44.607Z,0.53
2018-06-05T22:49:18.826Z,0.80
2018-06-05T22:51:52.242Z,0.60
2018-06-05T22:54:25.285Z,0.73
2018-06-05T22:56:58.924Z,0.53
2018-06-05T22:59:36.844Z,0.80
2018-06-05T23:02:10.439Z,0.77
2018-06-05T23:04:49.026Z,0.70
2018-06-05T23:07:22.445Z,0.70
2018-06-05T23:09:56.561Z,0.70
2018-06-05T23:12:29.946Z,0.80
2018-06-05T23:15:03.777Z,0.47
2018-06-05T23:17:38.362Z,0.80
2018-06-05T23:20:12.316Z,0.50
2018-06-05T23:22:47.184Z,0.50
2018-06-05T23:25:20.716Z,0.50
2018-06-05T23:27:54.487Z,0.40
2018-06-05T23:30:27.763Z,0.50
2018-06-05T23:33:01.609Z,0.67
2018-06-05T23:35:34.987Z,0.60
2018-06-05T23:38:08.302Z,0.60
2018-06-05T23:40:42.151Z,0.70
2018-06-05T23:43:15.569Z,0.50
2018-06-05T23:45:49.200Z,0.50
2018-06-05T23:48:23.199Z,0.57
2018-06-05T23:50:57.266Z,0.60
2018-06-05T23:53:33.031Z,0.70
2018-06-05T23:56:08.582Z,0.70
2018-06-05T23:58:42.812Z,0.80
